Time;durP1;ratioP1;P1;durP2;ratioP2;P2;SDS_P1;SDS_P2;PMS_P1;PMS_P2;Temp;Humidity;BMP_temperature;BMP_pressure;BME280_temperature;BME280_humidity;BME280_pressure;Samples;Min_cycle;Max_cycle;Signal;HPM_P1;HPM_P2
2023/08/04 00:00:09;;;;;;;2.10;2.00;;;18.10;99.90;;;;;;10514764;28;20247;-84
2023/08/04 00:05:11;;;;;;;3.30;2.40;;;18.10;99.90;;;;;;10510816;28;20197;-85
2023/08/04 00:10:14;;;;;;;2.47;2.30;;;18.10;99.90;;;;;;10510948;28;20248;-85
2023/08/04 00:15:16;;;;;;;2.40;2.30;;;18.10;99.90;;;;;;10509521;28;20210;-85
2023/08/04 00:20:18;;;;;;;2.03;1.93;;;18.10;99.90;;;;;;10497276;28;20696;-82
2023/08/04 00:25:22;;;;;;;2.80;2.20;;;18.10;99.90;;;;;;10515137;28;20205;-84
2023/08/04 00:30:24;;;;;;;2.73;2.20;;;18.10;99.90;;;;;;10506165;28;21116;-83
2023/08/04 00:35:26;;;;;;;4.53;2.60;;;18.10;99.90;;;;;;10499418;28;20299;-83
2023/08/04 00:40:30;;;;;;;4.30;2.30;;;18.10;99.90;;;;;;10484332;28;20562;-85
2023/08/04 00:45:32;;;;;;;4.23;2.20;;;18.10;99.90;;;;;;10506372;28;20574;-84
2023/08/04 00:50:35;;;;;;;2.67;2.57;;;18.10;99.90;;;;;;10501794;28;20285;-86
2023/08/04 00:55:38;;;;;;;2.50;2.30;;;18.00;99.90;;;;;;10486147;28;20258;-83
2023/08/04 01:00:40;;;;;;;2.53;2.13;;;18.00;99.90;;;;;;10499913;28;20233;-85
2023/08/04 01:05:56;;;;;;;2.57;2.37;;;18.00;99.90;;;;;;10481722;28;20561;-84
2023/08/04 01:11:04;;;;;;;2.40;2.20;;;17.90;99.90;;;;;;10499014;28;20212;-85
2023/08/04 01:16:08;;;;;;;2.40;2.30;;;17.90;99.90;;;;;;10475875;28;20730;-84
2023/08/04 01:21:11;;;;;;;2.20;2.10;;;17.80;99.90;;;;;;10505369;28;20228;-84
2023/08/04 01:26:14;;;;;;;2.33;2.23;;;17.80;99.90;;;;;;10507029;28;20284;-84
2023/08/04 01:31:17;;;;;;;2.23;2.10;;;17.80;99.90;;;;;;10506110;28;20523;-84
2023/08/04 01:36:21;;;;;;;2.20;2.10;;;17.80;99.90;;;;;;10503942;28;20228;-85
2023/08/04 01:41:23;;;;;;;2.30;2.20;;;17.80;99.90;;;;;;10507635;28;20625;-84
2023/08/04 01:46:25;;;;;;;2.40;2.30;;;17.70;99.90;;;;;;10497672;28;20208;-85
2023/08/04 01:51:28;;;;;;;2.60;2.40;;;17.70;99.90;;;;;;10521889;28;20303;-83
2023/08/04 01:56:30;;;;;;;2.27;2.17;;;17.70;99.90;;;;;;10486035;28;20227;-85
2023/08/04 02:01:32;;;;;;;2.40;2.20;;;17.80;99.90;;;;;;10478272;28;20235;-85
2023/08/04 02:06:36;;;;;;;2.40;2.20;;;17.80;99.90;;;;;;10507797;28;20271;-84
2023/08/04 02:11:38;;;;;;;2.40;2.20;;;17.80;99.90;;;;;;10496124;28;20615;-85
2023/08/04 02:16:40;;;;;;;3.80;2.10;;;17.90;99.90;;;;;;10517390;28;20235;-86
2023/08/04 02:21:43;;;;;;;2.47;2.30;;;18.00;99.90;;;;;;10507398;28;20278;-83
2023/08/04 02:26:46;;;;;;;2.50;2.37;;;18.00;99.90;;;;;;10489040;28;20219;-84
2023/08/04 02:31:48;;;;;;;2.60;2.40;;;18.00;99.90;;;;;;10482981;28;20229;-84
2023/08/04 02:36:52;;;;;;;2.00;2.00;;;18.10;99.90;;;;;;10500408;28;20288;-84
2023/08/04 02:41:57;;;;;;;2.07;1.97;;;18.20;99.90;;;;;;10513347;28;20228;-83
2023/08/04 02:46:59;;;;;;;2.33;2.23;;;18.20;99.90;;;;;;10505656;28;20197;-85
2023/08/04 02:52:04;;;;;;;2.30;2.20;;;18.30;99.90;;;;;;10516701;28;20213;-85
2023/08/04 02:57:07;;;;;;;2.33;2.23;;;18.30;99.90;;;;;;10493621;28;20201;-84
2023/08/04 03:02:09;;;;;;;4.03;1.90;;;18.40;99.90;;;;;;10507749;28;20256;-85
2023/08/04 03:07:12;;;;;;;1.67;1.67;;;18.50;99.90;;;;;;10492607;28;20204;-86
2023/08/04 03:12:14;;;;;;;5.60;2.57;;;18.50;99.90;;;;;;10514749;28;20692;-84
2023/08/04 03:17:16;;;;;;;2.20;2.10;;;18.60;99.90;;;;;;10511433;28;20197;-84
2023/08/04 03:22:20;;;;;;;2.17;2.07;;;18.60;99.90;;;;;;10510908;28;20263;-83
2023/08/04 03:27:23;;;;;;;1.77;1.67;;;18.60;99.90;;;;;;10521943;28;20323;-85
2023/08/04 03:32:25;;;;;;;2.00;1.90;;;18.60;99.90;;;;;;10509784;28;20480;-84
2023/08/04 03:37:29;;;;;;;1.70;1.60;;;18.50;99.90;;;;;;10506486;28;20682;-84
2023/08/04 03:42:31;;;;;;;3.43;2.10;;;18.60;99.90;;;;;;10510659;28;20224;-84
2023/08/04 03:47:34;;;;;;;2.03;1.93;;;18.60;99.90;;;;;;10513516;28;20224;-84
2023/08/04 03:52:38;;;;;;;2.53;2.43;;;18.60;99.90;;;;;;10505642;28;20228;-84
2023/08/04 03:57:40;;;;;;;3.50;2.10;;;18.60;99.90;;;;;;10497430;28;20211;-85
2023/08/04 04:02:42;;;;;;;2.13;1.93;;;18.60;99.90;;;;;;10503033;28;20228;-84
2023/08/04 04:07:45;;;;;;;3.83;2.13;;;18.70;99.90;;;;;;10512042;28;20202;-84
2023/08/04 04:12:47;;;;;;;2.33;2.23;;;18.70;99.90;;;;;;10512117;28;20216;-86
2023/08/04 04:17:49;;;;;;;2.37;2.27;;;18.70;99.90;;;;;;10510877;28;20390;-85
2023/08/04 04:22:53;;;;;;;2.13;2.03;;;18.70;99.90;;;;;;10497818;22;20235;-81
2023/08/04 04:27:55;;;;;;;2.27;2.17;;;18.70;99.90;;;;;;10443381;28;20236;-82
2023/08/04 04:32:57;;;;;;;3.00;1.90;;;18.70;99.90;;;;;;10442970;28;20301;-82
2023/08/04 04:38:01;;;;;;;2.33;2.03;;;18.70;99.90;;;;;;10448795;28;20199;-80
2023/08/04 04:43:03;;;;;;;2.73;2.10;;;18.70;99.90;;;;;;10443476;28;20218;-83
2023/08/04 04:48:05;;;;;;;2.13;2.03;;;18.70;99.90;;;;;;10446407;28;20199;-80
2023/08/04 04:53:08;;;;;;;2.60;2.50;;;18.70;99.90;;;;;;10443140;28;20304;-82
2023/08/04 04:58:12;;;;;;;2.03;1.93;;;18.70;99.90;;;;;;10437362;28;20248;-82
2023/08/04 05:03:14;;;;;;;2.07;1.90;;;18.80;99.90;;;;;;10438056;28;20262;-83
2023/08/04 05:08:17;;;;;;;2.50;2.40;;;18.80;99.90;;;;;;10438735;28;20226;-81
2023/08/04 05:13:19;;;;;;;2.50;2.40;;;18.90;99.90;;;;;;10440520;28;20227;-81
2023/08/04 05:18:21;;;;;;;2.07;1.97;;;19.00;99.90;;;;;;10443056;28;20672;-82
2023/08/04 05:23:25;;;;;;;2.53;2.33;;;19.10;99.90;;;;;;10437986;28;20230;-80
2023/08/04 05:28:29;;;;;;;2.13;2.03;;;19.10;99.90;;;;;;10434787;28;20202;-80
2023/08/04 05:33:33;;;;;;;2.33;2.13;;;19.20;99.90;;;;;;10439071;28;20222;-82
2023/08/04 05:38:36;;;;;;;2.43;1.97;;;19.20;99.90;;;;;;10439706;28;20555;-81
2023/08/04 05:43:38;;;;;;;2.10;2.00;;;19.40;99.90;;;;;;10439565;28;20218;-82
2023/08/04 05:48:41;;;;;;;2.10;2.00;;;19.60;99.90;;;;;;10444423;28;20195;-80
2023/08/04 05:53:44;;;;;;;2.23;2.13;;;19.70;99.90;;;;;;10439615;28;20243;-80
2023/08/04 05:58:46;;;;;;;1.90;1.80;;;19.80;99.90;;;;;;10438803;28;20213;-80
2023/08/04 06:03:48;;;;;;;1.80;1.70;;;19.90;99.90;;;;;;10437146;28;20317;-80
2023/08/04 06:08:52;;;;;;;3.03;1.50;;;19.90;99.90;;;;;;10441083;28;20213;-82
2023/08/04 06:13:55;;;;;;;2.20;2.10;;;20.00;99.90;;;;;;10434666;28;20210;-82
2023/08/04 06:18:58;;;;;;;5.50;2.00;;;20.10;99.90;;;;;;10441524;28;20195;-81
2023/08/04 06:24:01;;;;;;;2.10;2.00;;;20.30;99.90;;;;;;10441846;28;20214;-82
2023/08/04 06:29:03;;;;;;;2.00;1.90;;;20.40;99.90;;;;;;10431575;28;20233;-81
2023/08/04 06:34:05;;;;;;;2.23;2.07;;;20.50;99.90;;;;;;10438182;28;20225;-81
2023/08/04 06:39:09;;;;;;;2.93;2.63;;;20.60;99.90;;;;;;10437806;28;20215;-82
2023/08/04 06:44:13;;;;;;;9.43;3.13;;;20.70;99.90;;;;;;10432296;28;20604;-81
2023/08/04 06:49:15;;;;;;;5.13;3.23;;;20.90;99.90;;;;;;10435128;28;20576;-82
2023/08/04 06:54:19;;;;;;;4.30;2.60;;;21.00;99.90;;;;;;10441190;28;20591;-82
2023/08/04 06:59:21;;;;;;;9.00;3.33;;;21.20;99.90;;;;;;10442031;28;20209;-81
2023/08/04 07:04:24;;;;;;;2.50;2.33;;;21.40;99.80;;;;;;10442329;28;20222;-82
2023/08/04 07:09:27;;;;;;;2.63;2.43;;;21.50;99.20;;;;;;10443658;28;20203;-82
2023/08/04 07:14:30;;;;;;;3.30;2.30;;;21.70;99.80;;;;;;10446148;28;20248;-82
2023/08/04 07:19:32;;;;;;;2.33;2.07;;;21.90;99.80;;;;;;10443398;28;20199;-82
2023/08/04 07:24:35;;;;;;;2.17;2.07;;;22.20;99.00;;;;;;10441380;28;20642;-82
2023/08/04 07:29:37;;;;;;;3.03;2.83;;;22.40;99.30;;;;;;10452947;28;20194;-82
2023/08/04 07:34:40;;;;;;;1.90;1.80;;;22.70;97.40;;;;;;10447305;28;20544;-81
2023/08/04 07:39:43;;;;;;;2.10;1.90;;;23.10;97.00;;;;;;10450271;28;20516;-82
2023/08/04 07:44:45;;;;;;;2.47;2.17;;;23.40;95.80;;;;;;10428799;28;20222;-82
2023/08/04 07:49:47;;;;;;;2.10;2.00;;;23.40;96.60;;;;;;10454596;28;20866;-82
2023/08/04 07:54:50;;;;;;;2.87;2.30;;;23.40;96.90;;;;;;10445995;28;20211;-82
2023/08/04 07:59:53;;;;;;;2.23;2.03;;;23.20;97.30;;;;;;10456166;28;20209;-82
2023/08/04 08:04:55;;;;;;;2.77;2.07;;;23.00;97.20;;;;;;10449117;28;20316;-82
2023/08/04 08:09:58;;;;;;;2.07;1.97;;;23.10;97.30;;;;;;10450522;28;20518;-82
2023/08/04 08:15:00;;;;;;;3.07;2.10;;;23.20;96.20;;;;;;10454212;28;20289;-82
2023/08/04 08:20:02;;;;;;;2.20;2.10;;;23.20;96.40;;;;;;10468924;28;20198;-82
2023/08/04 08:25:07;;;;;;;2.30;1.93;;;23.30;95.50;;;;;;10449891;28;20228;-81
2023/08/04 08:30:11;;;;;;;2.27;2.07;;;23.60;96.30;;;;;;10439247;28;20198;-82
2023/08/04 08:35:13;;;;;;;2.97;2.27;;;24.00;94.40;;;;;;10436243;28;20191;-82
2023/08/04 08:40:18;;;;;;;4.77;2.47;;;24.40;93.80;;;;;;10426618;28;20222;-82
2023/08/04 08:45:20;;;;;;;2.43;1.80;;;24.50;93.50;;;;;;10435078;28;20920;-82
2023/08/04 08:50:24;;;;;;;2.13;1.90;;;24.60;94.70;;;;;;10432056;28;20202;-82
2023/08/04 08:55:29;;;;;;;1.63;1.53;;;24.60;94.10;;;;;;10423466;28;20198;-82
2023/08/04 09:00:31;;;;;;;4.53;2.03;;;24.40;94.30;;;;;;10438407;28;20225;-82
2023/08/04 09:05:34;;;;;;;2.20;2.00;;;24.20;94.60;;;;;;10435356;28;20194;-83
2023/08/04 09:10:38;;;;;;;2.53;2.10;;;24.10;93.70;;;;;;10442596;28;20226;-82
2023/08/04 09:15:48;;;;;;;2.70;2.10;;;23.90;94.60;;;;;;10466720;28;20214;-82
2023/08/04 09:20:58;;;;;;;2.40;2.00;;;23.70;94.70;;;;;;10444941;28;20234;-82
2023/08/04 09:26:02;;;;;;;1.93;1.83;;;23.50;95.30;;;;;;10449336;28;20230;-83
2023/08/04 09:31:06;;;;;;;1.77;1.67;;;23.40;94.60;;;;;;10473943;28;20194;-82
2023/08/04 09:36:09;;;;;;;2.07;1.80;;;23.70;95.90;;;;;;10480627;28;20229;-83
2023/08/04 09:41:14;;;;;;;2.73;2.40;;;24.10;95.00;;;;;;10460491;28;20220;-83
2023/08/04 09:46:17;;;;;;;1.87;1.77;;;24.60;95.00;;;;;;10475867;28;20174;-83
2023/08/04 09:51:19;;;;;;;2.30;2.13;;;25.10;93.50;;;;;;10462249;28;20242;-83
2023/08/04 09:56:26;;;;;;;2.73;1.67;;;25.40;93.40;;;;;;10421263;28;20204;-83
2023/08/04 10:01:28;;;;;;;1.97;1.80;;;26.10;93.40;;;;;;10441235;28;20569;-83
2023/08/04 10:06:33;;;;;;;3.80;2.23;;;26.90;92.40;;;;;;10432267;28;20657;-83
2023/08/04 10:11:36;;;;;;;2.70;1.77;;;27.10;90.50;;;;;;10429135;28;20899;-82
2023/08/04 10:16:40;;;;;;;2.40;2.20;;;26.70;90.70;;;;;;10438662;28;20220;-82
2023/08/04 10:21:42;;;;;;;2.43;2.23;;;26.20;91.30;;;;;;10494080;23;20315;-83
2023/08/04 10:26:48;;;;;;;1.80;1.70;;;25.70;92.10;;;;;;10528801;28;20204;-83
2023/08/04 10:31:52;;;;;;;2.20;2.10;;;25.20;92.30;;;;;;10503021;28;20244;-83
2023/08/04 10:37:04;;;;;;;1.83;1.73;;;24.70;93.50;;;;;;10484537;28;20244;-83
2023/08/04 10:42:15;;;;;;;2.30;2.10;;;24.40;94.00;;;;;;10494130;28;20245;-83
2023/08/04 10:47:30;;;;;;;2.07;1.93;;;24.20;94.70;;;;;;10494253;28;20685;-82
2023/08/04 10:52:33;;;;;;;1.90;1.80;;;24.20;94.90;;;;;;10496143;28;20216;-84
2023/08/04 10:57:37;;;;;;;1.90;1.80;;;24.10;95.40;;;;;;10470964;28;20268;-86
2023/08/04 11:02:40;;;;;;;1.70;1.60;;;24.10;95.30;;;;;;10485429;28;20237;-85
2023/08/04 11:07:46;;;;;;;1.80;1.70;;;24.00;95.30;;;;;;10480382;28;20216;-85
2023/08/04 11:12:49;;;;;;;1.70;1.60;;;23.80;95.30;;;;;;10497960;28;20276;-85
2023/08/04 11:17:51;;;;;;;3.80;1.73;;;23.70;96.50;;;;;;10477867;28;20200;-85
2023/08/04 11:22:54;;;;;;;2.60;2.30;;;23.70;97.40;;;;;;10479533;28;20227;-85
2023/08/04 11:27:57;;;;;;;3.33;2.40;;;23.50;98.40;;;;;;10484109;28;20201;-86
2023/08/04 11:32:59;;;;;;;2.20;2.10;;;23.50;99.50;;;;;;10479927;28;20236;-85
2023/08/04 11:38:02;;;;;;;1.73;1.63;;;23.60;99.50;;;;;;10480218;28;20264;-85
2023/08/04 11:43:06;;;;;;;1.80;1.70;;;23.80;98.00;;;;;;10488379;28;20213;-85
2023/08/04 11:48:08;;;;;;;2.63;1.90;;;23.80;97.80;;;;;;10484928;28;20194;-85
2023/08/04 11:53:15;;;;;;;2.20;2.00;;;23.80;97.40;;;;;;10485327;28;20222;-85
2023/08/04 11:58:32;;;;;;;3.13;2.03;;;23.60;97.50;;;;;;10487262;28;20218;-86
2023/08/04 12:03:45;;;;;;;1.70;1.50;;;23.40;97.90;;;;;;10487330;28;20374;-85
2023/08/04 12:08:49;;;;;;;2.40;2.20;;;23.00;98.30;;;;;;10477359;28;20269;-86
2023/08/04 12:13:52;;;;;;;2.30;2.00;;;22.70;98.40;;;;;;10489731;28;20587;-85
2023/08/04 12:19:05;;;;;;;2.10;1.90;;;22.50;98.80;;;;;;10493052;28;20202;-85
2023/08/04 12:24:08;;;;;;;1.73;1.53;;;22.30;99.90;;;;;;10486038;28;20642;-85
2023/08/04 12:29:11;;;;;;;4.00;2.07;;;22.10;99.90;;;;;;10474582;28;20209;-85
2023/08/04 12:34:14;;;;;;;2.00;1.80;;;22.00;99.90;;;;;;10479984;28;20272;-85
2023/08/04 12:39:16;;;;;;;2.17;2.00;;;22.00;99.90;;;;;;10489718;28;20229;-85
2023/08/04 12:44:19;;;;;;;1.90;1.80;;;22.00;99.90;;;;;;10486159;28;20240;-85
2023/08/04 12:49:21;;;;;;;2.33;2.10;;;22.10;99.90;;;;;;10482504;28;20293;-85
2023/08/04 12:54:24;;;;;;;2.27;2.07;;;22.10;99.90;;;;;;10478038;28;20870;-85
2023/08/04 12:59:27;;;;;;;3.13;2.33;;;22.30;99.90;;;;;;10490617;28;20205;-85
2023/08/04 13:04:31;;;;;;;1.70;1.60;;;22.60;99.90;;;;;;10482195;28;20273;-85
2023/08/04 13:09:33;;;;;;;1.90;1.80;;;22.80;99.90;;;;;;10478161;28;20202;-85
2023/08/04 13:14:36;;;;;;;1.70;1.60;;;22.90;99.90;;;;;;10474348;28;20220;-85
2023/08/04 13:19:38;;;;;;;3.53;1.77;;;22.90;99.90;;;;;;10485348;28;20711;-85
2023/08/04 13:24:40;;;;;;;2.50;2.00;;;22.90;99.90;;;;;;10474422;28;20242;-85
2023/08/04 13:29:46;;;;;;;1.77;1.50;;;22.80;99.90;;;;;;10483751;28;20861;-85
2023/08/04 13:34:48;;;;;;;3.07;1.47;;;22.80;99.90;;;;;;10461453;28;20690;-85
2023/08/04 13:39:50;;;;;;;1.60;1.57;;;22.80;99.90;;;;;;10475148;28;20723;-86
2023/08/04 13:44:54;;;;;;;2.13;2.03;;;23.10;99.90;;;;;;10480909;28;20680;-85
2023/08/04 13:49:56;;;;;;;2.37;2.20;;;23.30;99.90;;;;;;10455939;28;20233;-85
2023/08/04 13:54:58;;;;;;;3.10;2.13;;;23.30;99.90;;;;;;10481971;28;20278;-85
2023/08/04 14:00:03;;;;;;;2.37;1.93;;;23.40;99.80;;;;;;10476057;28;20210;-85
2023/08/04 14:05:07;;;;;;;3.27;2.40;;;23.10;99.90;;;;;;10479774;28;20278;-85
2023/08/04 14:10:10;;;;;;;2.67;2.47;;;22.90;99.90;;;;;;10470060;28;20237;-85
2023/08/04 14:15:13;;;;;;;2.90;2.80;;;22.80;99.90;;;;;;10478721;28;20248;-85
2023/08/04 14:20:16;;;;;;;2.40;2.13;;;22.80;99.90;;;;;;10471277;28;20209;-85
2023/08/04 14:25:18;;;;;;;2.63;2.53;;;22.80;99.90;;;;;;10478052;28;20652;-86
2023/08/04 14:30:21;;;;;;;2.30;2.20;;;22.80;99.90;;;;;;10470588;28;20213;-83
2023/08/04 14:35:23;;;;;;;2.57;2.37;;;22.70;99.90;;;;;;10502214;28;20561;-85
2023/08/04 14:40:26;;;;;;;2.70;2.57;;;22.70;99.90;;;;;;10460266;28;20281;-85
2023/08/04 14:45:31;;;;;;;3.00;2.77;;;22.70;99.90;;;;;;10490927;28;20316;-86
2023/08/04 14:50:39;;;;;;;3.10;2.80;;;22.70;99.90;;;;;;10479574;28;20201;-85
2023/08/04 14:55:41;;;;;;;3.07;2.87;;;22.70;99.90;;;;;;10482864;28;20280;-85
2023/08/04 15:00:45;;;;;;;2.60;2.50;;;22.70;99.90;;;;;;10481807;28;20233;-85
2023/08/04 15:05:47;;;;;;;3.20;3.00;;;22.70;99.90;;;;;;10483844;28;20225;-85
2023/08/04 15:10:49;;;;;;;2.77;2.67;;;22.70;99.90;;;;;;10483845;28;20283;-85
2023/08/04 15:15:53;;;;;;;2.90;2.70;;;22.70;99.90;;;;;;10497457;28;20193;-85
2023/08/04 15:20:55;;;;;;;2.00;1.90;;;22.70;99.90;;;;;;10482767;28;20234;-85
2023/08/04 15:25:57;;;;;;;2.57;2.47;;;22.80;99.90;;;;;;10482220;28;20205;-85
2023/08/04 15:31:05;;;;;;;2.70;2.50;;;22.70;99.90;;;;;;10481855;28;20197;-85
2023/08/04 15:36:08;;;;;;;2.50;2.40;;;22.80;99.90;;;;;;10482200;28;20247;-85
2023/08/04 15:41:10;;;;;;;3.10;2.90;;;22.80;99.90;;;;;;10482287;28;20218;-86
2023/08/04 15:46:14;;;;;;;6.23;3.40;;;22.80;99.90;;;;;;10486727;28;20687;-86
2023/08/04 15:51:16;;;;;;;3.00;2.80;;;22.90;99.90;;;;;;10498687;28;20222;-85
2023/08/04 15:56:18;;;;;;;3.53;3.33;;;22.80;99.90;;;;;;10466635;28;20229;-85
2023/08/04 16:01:21;;;;;;;3.60;3.30;;;22.80;99.90;;;;;;10472757;28;20226;-85
2023/08/04 16:06:23;;;;;;;3.90;3.50;;;22.90;99.90;;;;;;10475973;28;20225;-87
2023/08/04 16:11:28;;;;;;;3.60;3.30;;;22.90;99.90;;;;;;10481258;28;20218;-86
2023/08/04 16:16:31;;;;;;;3.43;3.20;;;22.90;99.90;;;;;;10495726;28;20881;-86
2023/08/04 16:21:34;;;;;;;3.80;3.50;;;23.00;99.90;;;;;;10481553;28;20304;-85
2023/08/04 16:26:37;;;;;;;3.17;2.97;;;23.00;99.90;;;;;;10483937;28;20269;-85
2023/08/04 16:31:40;;;;;;;2.87;2.67;;;23.10;99.90;;;;;;10495925;28;20702;-84
2023/08/04 16:36:42;;;;;;;2.10;2.00;;;23.00;99.70;;;;;;10475816;28;20196;-85
2023/08/04 16:41:45;;;;;;;2.27;2.17;;;22.90;98.90;;;;;;10481180;28;20221;-84
2023/08/04 16:46:48;;;;;;;2.30;2.20;;;22.70;98.40;;;;;;10483256;28;20235;-85
2023/08/04 16:51:50;;;;;;;2.03;1.93;;;22.60;98.40;;;;;;10478710;28;20220;-84
2023/08/04 16:56:53;;;;;;;2.03;1.93;;;22.30;98.80;;;;;;10480939;28;20206;-84
2023/08/04 17:01:56;;;;;;;2.63;2.53;;;22.20;99.30;;;;;;10488071;28;20225;-85
2023/08/04 17:06:58;;;;;;;2.60;2.40;;;22.00;99.90;;;;;;10481716;28;20279;-85
2023/08/04 17:12:00;;;;;;;2.30;2.20;;;21.90;99.90;;;;;;10476238;28;20283;-85
2023/08/04 17:17:04;;;;;;;3.43;3.13;;;21.70;99.90;;;;;;10475695;28;20243;-85
2023/08/04 17:22:07;;;;;;;3.20;3.00;;;21.50;99.90;;;;;;10480432;28;20228;-86
2023/08/04 17:27:09;;;;;;;3.77;3.47;;;21.40;99.90;;;;;;10481448;28;20253;-85
2023/08/04 17:32:12;;;;;;;4.37;4.07;;;21.30;99.90;;;;;;10475753;28;20230;-85
2023/08/04 17:37:14;;;;;;;3.40;3.20;;;21.10;99.90;;;;;;10478371;28;20227;-85
2023/08/04 17:42:16;;;;;;;3.83;3.63;;;21.00;99.90;;;;;;10470723;28;20241;-85
2023/08/04 17:47:19;;;;;;;3.60;3.00;;;20.90;99.90;;;;;;10463574;28;20323;-84
2023/08/04 17:52:21;;;;;;;3.60;3.30;;;20.90;99.90;;;;;;10484306;28;20913;-84
2023/08/04 17:57:24;;;;;;;3.80;3.60;;;20.90;99.90;;;;;;10485208;28;20271;-85
2023/08/04 18:02:27;;;;;;;3.20;3.00;;;20.90;99.90;;;;;;10477117;28;20280;-85
2023/08/04 18:07:29;;;;;;;2.70;2.50;;;20.80;99.90;;;;;;10479530;28;20289;-85
2023/08/04 18:12:31;;;;;;;3.77;3.47;;;20.80;99.90;;;;;;10458769;28;20232;-85
2023/08/04 18:17:34;;;;;;;3.00;2.80;;;20.70;99.90;;;;;;10477464;28;20293;-86
2023/08/04 18:22:37;;;;;;;3.50;2.80;;;20.70;99.90;;;;;;10479300;28;20233;-85
2023/08/04 18:27:39;;;;;;;4.83;3.30;;;20.60;99.90;;;;;;10494061;28;20259;-85
2023/08/04 18:32:42;;;;;;;3.40;3.07;;;20.60;99.90;;;;;;10471105;28;20221;-85
2023/08/04 18:37:44;;;;;;;3.53;3.33;;;20.50;99.90;;;;;;10477379;28;20202;-85
2023/08/04 18:42:48;;;;;;;3.27;3.17;;;20.50;99.90;;;;;;10476126;28;20232;-85
2023/08/04 18:47:51;;;;;;;3.60;3.40;;;20.50;99.90;;;;;;10475643;28;20551;-85
2023/08/04 18:52:53;;;;;;;3.50;3.20;;;20.50;99.90;;;;;;10478679;28;20237;-84
2023/08/04 18:57:55;;;;;;;4.57;3.97;;;20.50;99.90;;;;;;10475675;28;20259;-85
2023/08/04 19:02:58;;;;;;;3.87;3.67;;;20.40;99.90;;;;;;10472095;28;20241;-85
2023/08/04 19:08:01;;;;;;;4.70;4.30;;;20.40;99.90;;;;;;10476877;28;20649;-85
2023/08/04 19:13:03;;;;;;;5.10;4.07;;;20.40;99.90;;;;;;10466647;28;20270;-85
2023/08/04 19:18:06;;;;;;;4.10;3.80;;;20.30;99.90;;;;;;10472107;28;20193;-85
2023/08/04 19:23:08;;;;;;;5.50;4.83;;;20.30;99.90;;;;;;10480020;28;20221;-85
2023/08/04 19:28:10;;;;;;;5.77;5.07;;;20.20;99.90;;;;;;10482916;28;20280;-84
2023/08/04 19:33:14;;;;;;;5.30;4.90;;;20.20;99.90;;;;;;10474221;28;20561;-85
2023/08/04 19:38:16;;;;;;;6.10;5.57;;;20.20;99.90;;;;;;10476778;28;20204;-85
2023/08/04 19:43:18;;;;;;;6.13;5.43;;;20.10;99.90;;;;;;10478629;28;20254;-85
2023/08/04 19:48:21;;;;;;;5.97;5.50;;;20.20;99.90;;;;;;10470670;28;20336;-85
2023/08/04 19:53:23;;;;;;;7.90;6.40;;;20.10;99.90;;;;;;10477854;28;20316;-85
2023/08/04 19:58:26;;;;;;;7.40;6.70;;;20.10;99.90;;;;;;10478225;28;20239;-85
2023/08/04 20:03:29;;;;;;;7.13;6.50;;;20.10;99.90;;;;;;10481712;28;20736;-85
2023/08/04 20:08:32;;;;;;;6.80;6.10;;;20.00;99.90;;;;;;10480672;28;20263;-84
2023/08/04 20:13:35;;;;;;;9.37;6.80;;;20.00;99.90;;;;;;10460195;28;20223;-86
2023/08/04 20:18:39;;;;;;;7.03;6.50;;;20.00;99.90;;;;;;10480978;28;20639;-85
2023/08/04 20:23:41;;;;;;;7.27;6.57;;;20.00;99.90;;;;;;10493894;28;20225;-85
2023/08/04 20:28:45;;;;;;;6.57;6.00;;;19.90;99.90;;;;;;10478748;28;20198;-84
2023/08/04 20:33:51;;;;;;;7.67;6.50;;;19.80;99.90;;;;;;10477171;28;20221;-85
2023/08/04 20:38:53;;;;;;;6.63;6.03;;;19.80;99.90;;;;;;10476104;28;20193;-86
2023/08/04 20:43:55;;;;;;;7.83;7.13;;;19.80;99.90;;;;;;10479907;28;20225;-85
2023/08/04 20:48:58;;;;;;;7.03;6.43;;;19.80;99.90;;;;;;10472506;28;20209;-85
2023/08/04 20:54:00;;;;;;;6.03;5.43;;;19.80;99.90;;;;;;10472684;28;20224;-85
2023/08/04 20:59:03;;;;;;;7.33;6.63;;;19.80;99.90;;;;;;10458762;28;20209;-85
2023/08/04 21:04:06;;;;;;;6.00;5.50;;;19.80;99.90;;;;;;10477647;28;20220;-85
2023/08/04 21:09:10;;;;;;;6.40;5.80;;;19.80;99.90;;;;;;10470363;28;20248;-85
2023/08/04 21:14:12;;;;;;;6.90;6.20;;;19.80;99.90;;;;;;10472733;28;20213;-86
2023/08/04 21:19:16;;;;;;;7.10;6.60;;;19.80;99.90;;;;;;10472439;28;20243;-86
2023/08/04 21:24:18;;;;;;;6.53;6.00;;;19.80;99.90;;;;;;10473023;28;20260;-85
2023/08/04 21:29:20;;;;;;;6.90;6.30;;;19.80;99.90;;;;;;10474953;28;20225;-85
2023/08/04 21:34:23;;;;;;;6.80;6.20;;;19.80;99.90;;;;;;10475049;28;20637;-85
2023/08/04 21:39:26;;;;;;;6.77;6.17;;;19.80;99.90;;;;;;10471338;28;20198;-85
2023/08/04 21:44:28;;;;;;;6.33;5.70;;;19.80;99.90;;;;;;10473416;28;20336;-85
2023/08/04 21:49:31;;;;;;;6.57;5.97;;;19.80;99.90;;;;;;10477061;28;20708;-85
2023/08/04 21:54:35;;;;;;;7.63;6.00;;;19.80;99.90;;;;;;10474833;28;20226;-85
2023/08/04 21:59:37;;;;;;;6.40;5.90;;;19.80;99.90;;;;;;10473766;28;20202;-85
2023/08/04 22:04:41;;;;;;;9.17;5.53;;;19.80;99.90;;;;;;10468555;28;20218;-85
2023/08/04 22:09:43;;;;;;;6.60;5.83;;;19.80;99.90;;;;;;10465883;28;20568;-85
2023/08/04 22:14:45;;;;;;;6.53;5.73;;;19.80;99.90;;;;;;10473048;28;20205;-85
2023/08/04 22:19:48;;;;;;;6.20;5.57;;;19.80;99.90;;;;;;10482631;28;20232;-86
2023/08/04 22:24:50;;;;;;;5.80;5.30;;;19.80;99.90;;;;;;10474797;28;20568;-85
2023/08/04 22:29:52;;;;;;;5.40;5.00;;;19.70;99.90;;;;;;10465992;28;20201;-85
2023/08/04 22:34:57;;;;;;;6.23;5.53;;;19.70;99.90;;;;;;10470968;28;20295;-85
2023/08/04 22:39:59;;;;;;;6.60;6.00;;;19.60;99.90;;;;;;10469706;28;20201;-85
2023/08/04 22:45:03;;;;;;;6.17;5.57;;;19.60;99.90;;;;;;10472348;28;20225;-85
2023/08/04 22:50:07;;;;;;;8.00;5.87;;;19.60;99.90;;;;;;10482975;28;20202;-85
2023/08/04 22:55:10;;;;;;;6.07;5.43;;;19.60;99.90;;;;;;10476855;28;20574;-85
2023/08/04 23:00:12;;;;;;;6.70;6.10;;;19.70;99.90;;;;;;10480241;28;20237;-85
2023/08/04 23:05:18;;;;;;;6.13;5.63;;;19.70;99.90;;;;;;10481419;28;20221;-85
2023/08/04 23:10:20;;;;;;;5.63;5.13;;;19.70;99.90;;;;;;10472431;28;20284;-83
2023/08/04 23:15:22;;;;;;;12.50;6.40;;;19.70;99.90;;;;;;10441034;28;20296;-85
2023/08/04 23:20:26;;;;;;;5.40;5.00;;;19.60;99.90;;;;;;10439540;28;20296;-85
2023/08/04 23:25:28;;;;;;;6.20;5.60;;;19.60;99.90;;;;;;10441028;28;20292;-85
2023/08/04 23:30:30;;;;;;;7.80;5.23;;;19.60;99.90;;;;;;10481455;28;20236;-85
2023/08/04 23:35:34;;;;;;;9.20;6.70;;;19.60;99.90;;;;;;10444948;28;20249;-85
2023/08/04 23:40:36;;;;;;;5.97;5.47;;;19.60;99.90;;;;;;10444172;28;20637;-85
2023/08/04 23:45:38;;;;;;;6.00;5.40;;;19.60;99.90;;;;;;10449533;28;20237;-85
2023/08/04 23:50:41;;;;;;;5.90;5.30;;;19.50;99.90;;;;;;10448319;28;20206;-85
2023/08/04 23:55:43;;;;;;;6.67;6.07;;;19.50;99.90;;;;;;10456893;28;20218;-86
